createdAt,value
2019-01-26T00:02:09.585Z,-0.88
2019-01-26T00:04:37.046Z,-0.66
2019-01-26T00:07:04.105Z,-0.69
2019-01-26T00:09:32.302Z,-0.61
2019-01-26T00:12:00.363Z,-0.94
2019-01-26T00:14:28.818Z,-1.07
2019-01-26T00:16:56.181Z,-0.53
2019-01-26T00:19:23.629Z,-0.48
2019-01-26T00:21:51.290Z,-0.61
2019-01-26T00:24:19.053Z,-0.52
2019-01-26T00:26:46.411Z,-0.97
2019-01-26T00:29:13.761Z,-0.52
2019-01-26T00:31:42.670Z,-0.58
2019-01-26T00:34:09.755Z,-0.53
2019-01-26T00:36:37.931Z,-0.36
2019-01-26T00:39:07.882Z,-0.52
2019-01-26T00:41:35.416Z,-0.51
2019-01-26T00:44:02.483Z,-0.71
2019-01-26T00:46:29.594Z,-0.35
2019-01-26T00:48:56.646Z,-0.41
2019-01-26T00:51:24.047Z,-0.48
2019-01-26T00:53:51.125Z,-0.33
2019-01-26T00:56:18.183Z,-0.48
2019-01-26T00:58:45.250Z,-0.26
2019-01-26T01:01:12.851Z,-0.42
2019-01-26T01:03:40.025Z,-0.45
2019-01-26T01:06:07.175Z,-0.42
2019-01-26T01:08:34.711Z,-0.15
2019-01-26T01:11:02.064Z,-0.31
2019-01-26T01:13:29.418Z,-0.04
2019-01-26T01:15:56.788Z,-0.19
2019-01-26T01:18:24.438Z,-0.12
2019-01-26T01:20:52.101Z,-0.03
2019-01-26T01:23:19.473Z,-0.14
2019-01-26T01:25:46.806Z,0.03
2019-01-26T01:28:15.285Z,0.05
2019-01-26T01:30:42.637Z,-0.08
2019-01-26T01:33:11.429Z,0.13
2019-01-26T01:35:38.501Z,-0.15
2019-01-26T01:38:06.139Z,-0.09
2019-01-26T01:40:33.485Z,0.30
2019-01-26T01:43:00.857Z,-0.04
2019-01-26T01:45:28.310Z,-0.21
2019-01-26T01:47:55.658Z,0.13
2019-01-26T01:50:23.014Z,-0.13
2019-01-26T01:52:50.489Z,0.06
2019-01-26T01:55:19.670Z,0.33
2019-01-26T01:57:47.032Z,0.23
2019-01-26T02:00:19.755Z,0.36
2019-01-26T02:02:47.156Z,0.50
2019-01-26T02:05:14.594Z,0.64
2019-01-26T02:07:41.965Z,0.37
2019-01-26T02:10:11.048Z,0.65
2019-01-26T02:12:39.183Z,0.54
2019-01-26T02:15:07.403Z,0.67
2019-01-26T02:17:34.575Z,0.29
2019-01-26T02:20:03.768Z,0.33
2019-01-26T02:22:31.522Z,0.63
2019-01-26T02:24:59.082Z,0.20
2019-01-26T02:27:27.865Z,0.37
2019-01-26T02:29:55.971Z,0.48
2019-01-26T02:32:23.046Z,0.84
2019-01-26T02:34:50.750Z,0.71
2019-01-26T02:37:20.260Z,0.82
2019-01-26T02:39:47.925Z,0.92
2019-01-26T02:42:15.374Z,0.84
2019-01-26T02:44:42.725Z,0.97
2019-01-26T02:47:10.088Z,0.83
2019-01-26T02:49:39.585Z,0.80
2019-01-26T02:52:06.944Z,1.10
2019-01-26T02:54:36.144Z,1.01
2019-01-26T02:57:03.704Z,1.15
2019-01-26T02:59:31.893Z,1.19
2019-01-26T03:01:59.273Z,1.18
2019-01-26T03:04:26.687Z,0.99
2019-01-26T03:06:54.039Z,1.24
2019-01-26T03:09:21.498Z,1.08
2019-01-26T03:11:48.953Z,1.29
2019-01-26T03:14:16.306Z,1.49
2019-01-26T03:16:45.609Z,1.49
2019-01-26T03:19:12.687Z,1.25
2019-01-26T03:21:42.161Z,1.20
2019-01-26T03:24:12.484Z,1.24
2019-01-26T03:26:41.273Z,1.27
2019-01-26T03:29:10.155Z,1.30
2019-01-26T03:31:39.672Z,1.48
2019-01-26T03:34:07.031Z,1.45
2019-01-26T03:36:35.217Z,1.45
2019-01-26T03:39:02.325Z,1.92
2019-01-26T03:41:31.291Z,1.82
2019-01-26T03:43:59.000Z,1.79
2019-01-26T03:46:26.366Z,1.65
2019-01-26T03:48:53.830Z,1.81
2019-01-26T03:51:23.261Z,1.76
2019-01-26T03:53:50.348Z,1.75
2019-01-26T03:56:17.432Z,1.94
2019-01-26T03:58:45.595Z,1.62
2019-01-26T04:01:12.656Z,1.76
2019-01-26T04:03:39.737Z,2.27
2019-01-26T04:06:06.781Z,2.34
2019-01-26T04:08:34.352Z,1.98
2019-01-26T04:11:02.498Z,2.05
2019-01-26T04:13:30.227Z,2.28
2019-01-26T04:15:58.706Z,2.40
2019-01-26T04:18:26.022Z,2.42
2019-01-26T04:20:53.729Z,2.40
2019-01-26T04:23:21.162Z,2.48
2019-01-26T04:25:50.033Z,2.52
2019-01-26T04:28:17.526Z,2.55
2019-01-26T04:30:45.393Z,2.55
2019-01-26T04:33:13.053Z,2.37
2019-01-26T04:35:40.421Z,2.35
2019-01-26T04:38:07.965Z,2.33
2019-01-26T04:40:35.729Z,2.57
2019-01-26T04:43:03.192Z,2.57
2019-01-26T04:45:30.581Z,2.74
2019-01-26T04:47:57.897Z,2.74
2019-01-26T04:50:25.486Z,2.74
2019-01-26T04:52:53.230Z,2.97
2019-01-26T04:55:20.781Z,3.12
2019-01-26T04:57:48.134Z,2.87
2019-01-26T05:00:18.609Z,2.90
2019-01-26T05:02:46.029Z,3.08
2019-01-26T05:05:13.368Z,2.83
2019-01-26T05:07:42.255Z,3.12
2019-01-26T05:10:10.518Z,3.19
2019-01-26T05:12:37.892Z,3.31
2019-01-26T05:15:06.422Z,3.27
2019-01-26T05:17:39.190Z,3.55
2019-01-26T05:20:04.652Z,3.62
2019-01-26T05:22:31.746Z,3.62
2019-01-26T05:24:59.156Z,3.41
2019-01-26T05:27:26.229Z,3.64
2019-01-26T05:29:53.312Z,3.79
2019-01-26T05:32:20.378Z,3.77
2019-01-26T05:34:47.447Z,3.61
2019-01-26T05:37:15.329Z,3.62
2019-01-26T05:39:42.785Z,3.75
2019-01-26T05:42:10.547Z,3.74
2019-01-26T05:44:38.106Z,3.67
2019-01-26T05:47:05.769Z,3.32
2019-01-26T05:49:32.838Z,3.63
2019-01-26T05:52:00.084Z,3.46
2019-01-26T05:54:27.530Z,3.34
2019-01-26T05:56:55.711Z,3.46
2019-01-26T05:59:22.850Z,3.41
2019-01-26T06:01:50.252Z,3.29
2019-01-26T06:04:17.661Z,3.31
2019-01-26T06:06:45.440Z,3.60
2019-01-26T06:09:12.491Z,3.75
2019-01-26T06:11:40.254Z,3.44
2019-01-26T06:14:07.591Z,3.62
2019-01-26T06:16:34.787Z,3.55
2019-01-26T06:19:02.398Z,3.58
2019-01-26T06:21:30.267Z,3.47
2019-01-26T06:23:57.322Z,3.68
2019-01-26T06:26:24.669Z,3.58
2019-01-26T06:28:51.752Z,3.44
2019-01-26T06:31:18.821Z,3.71
2019-01-26T06:33:46.250Z,3.67
2019-01-26T06:36:14.850Z,3.83
2019-01-26T06:38:42.157Z,3.79
2019-01-26T06:41:10.025Z,3.87
2019-01-26T06:43:37.451Z,3.86
2019-01-26T06:46:04.833Z,3.87
2019-01-26T06:48:31.974Z,4.15
2019-01-26T06:50:59.339Z,4.10
2019-01-26T06:53:27.207Z,4.15
2019-01-26T06:55:54.268Z,4.16
2019-01-26T06:58:22.013Z,4.24
2019-01-26T07:00:49.370Z,3.99
2019-01-26T07:03:17.046Z,3.99
2019-01-26T07:05:55.655Z,4.15
2019-01-26T07:08:23.718Z,3.97
2019-01-26T07:10:51.075Z,4.01
2019-01-26T07:13:18.430Z,4.18
2019-01-26T07:15:45.630Z,4.04
2019-01-26T07:18:13.447Z,4.00
2019-01-26T07:20:40.803Z,4.40
2019-01-26T07:23:08.288Z,4.44
2019-01-26T07:25:35.877Z,4.37
2019-01-26T07:28:03.245Z,4.32
2019-01-26T07:30:30.541Z,4.42
2019-01-26T07:32:57.608Z,4.40
2019-01-26T07:35:24.929Z,4.11
2019-01-26T07:37:51.985Z,4.37
2019-01-26T07:40:19.402Z,4.16
2019-01-26T07:42:46.457Z,4.06
2019-01-26T07:45:13.745Z,4.24
2019-01-26T07:47:41.077Z,4.00
2019-01-26T07:50:10.816Z,4.19
2019-01-26T07:52:38.554Z,4.21
2019-01-26T07:55:06.889Z,4.27
2019-01-26T07:57:34.390Z,4.42
2019-01-26T08:00:01.851Z,4.34
2019-01-26T08:02:29.417Z,4.31
2019-01-26T08:04:57.374Z,4.44
2019-01-26T08:07:24.534Z,4.14
2019-01-26T08:09:51.614Z,4.19
2019-01-26T08:12:19.162Z,4.39
2019-01-26T08:14:47.530Z,4.50
2019-01-26T08:17:14.894Z,4.79
2019-01-26T08:19:42.730Z,4.54
2019-01-26T08:22:10.499Z,4.69
2019-01-26T08:24:38.258Z,4.64
2019-01-26T08:27:05.718Z,4.65
2019-01-26T08:29:33.583Z,4.66
2019-01-26T08:32:00.939Z,4.79
2019-01-26T08:34:29.319Z,4.80
2019-01-26T08:36:56.669Z,4.90
2019-01-26T08:39:24.026Z,4.75
2019-01-26T08:41:51.089Z,4.65
2019-01-26T08:44:19.070Z,4.55
2019-01-26T08:46:46.130Z,5.14
2019-01-26T08:49:13.582Z,4.69
2019-01-26T08:51:40.651Z,5.11
2019-01-26T08:54:07.733Z,5.07
2019-01-26T08:56:34.797Z,5.04
2019-01-26T08:59:01.878Z,5.27
2019-01-26T09:01:29.030Z,5.27
2019-01-26T09:04:04.085Z,4.96
2019-01-26T09:06:38.316Z,4.94
2019-01-26T09:09:10.761Z,5.09
2019-01-26T09:11:38.268Z,5.18
2019-01-26T09:14:05.555Z,5.11
2019-01-26T09:16:32.679Z,5.19
2019-01-26T09:19:00.106Z,5.19
2019-01-26T09:21:27.792Z,5.20
2019-01-26T09:23:55.863Z,5.36
2019-01-26T09:26:22.973Z,5.43
2019-01-26T09:28:50.673Z,5.63
2019-01-26T09:31:17.755Z,5.57
2019-01-26T09:33:45.279Z,5.64
2019-01-26T09:36:13.360Z,5.73
2019-01-26T09:38:41.010Z,5.51
2019-01-26T09:41:08.674Z,5.58
2019-01-26T09:43:35.756Z,5.79
2019-01-26T09:46:03.586Z,5.71
2019-01-26T09:48:30.710Z,5.44
2019-01-26T09:50:58.721Z,5.86
2019-01-26T09:53:26.058Z,5.93
2019-01-26T09:55:53.824Z,6.06
2019-01-26T09:58:21.192Z,5.67
2019-01-26T10:00:48.299Z,5.68
2019-01-26T10:03:15.382Z,5.88
2019-01-26T10:05:42.570Z,5.87
2019-01-26T10:08:10.294Z,5.88
2019-01-26T10:10:37.736Z,5.94
2019-01-26T10:13:04.920Z,5.94
2019-01-26T10:15:33.828Z,6.07
2019-01-26T10:18:01.347Z,6.05
2019-01-26T10:20:30.747Z,6.08
2019-01-26T10:22:58.202Z,6.12
2019-01-26T10:25:27.472Z,6.05
2019-01-26T10:27:55.266Z,6.24
2019-01-26T10:30:30.818Z,6.24
2019-01-26T10:32:57.878Z,6.14
2019-01-26T10:35:31.502Z,6.36
2019-01-26T10:37:59.944Z,6.46
2019-01-26T10:40:45.117Z,6.26
2019-01-26T10:43:14.415Z,6.30
2019-01-26T10:45:41.598Z,6.43
2019-01-26T10:48:09.327Z,6.68
2019-01-26T10:50:36.785Z,6.08
2019-01-26T10:53:04.239Z,6.04
2019-01-26T10:55:31.420Z,6.29
2019-01-26T10:57:58.846Z,6.29
2019-01-26T11:00:26.406Z,6.55
2019-01-26T11:02:53.470Z,6.57
2019-01-26T11:05:20.968Z,6.62
2019-01-26T11:07:48.369Z,6.97
2019-01-26T11:10:15.562Z,7.06
2019-01-26T11:12:42.766Z,6.80
2019-01-26T11:15:10.435Z,6.88
2019-01-26T11:17:37.628Z,7.02
2019-01-26T11:20:06.366Z,6.47
2019-01-26T11:22:33.722Z,6.59
2019-01-26T11:25:01.188Z,6.70
2019-01-26T11:27:28.258Z,6.51
2019-01-26T11:29:55.683Z,6.65
2019-01-26T11:32:23.546Z,6.70
2019-01-26T11:34:50.721Z,6.88
2019-01-26T11:37:18.167Z,6.94
2019-01-26T11:39:50.252Z,6.74
2019-01-26T11:42:17.346Z,6.68
2019-01-26T11:45:05.829Z,6.48
2019-01-26T11:47:33.010Z,6.47
2019-01-26T11:50:03.290Z,6.25
2019-01-26T11:52:31.060Z,6.42
2019-01-26T11:55:07.422Z,6.34
2019-01-26T11:57:37.314Z,6.35
2019-01-26T12:00:26.849Z,6.22
2019-01-26T12:03:00.477Z,6.44
2019-01-26T12:05:38.473Z,6.58
2019-01-26T12:08:06.622Z,6.59
2019-01-26T12:10:34.782Z,6.36
2019-01-26T12:13:01.877Z,6.77
2019-01-26T12:15:28.940Z,6.76
2019-01-26T12:17:56.373Z,6.69
2019-01-26T12:20:23.873Z,7.00
2019-01-26T12:22:52.281Z,6.81
2019-01-26T12:25:19.438Z,6.52
2019-01-26T12:27:46.525Z,6.73
2019-01-26T12:30:13.712Z,6.77
2019-01-26T12:32:40.781Z,6.59
2019-01-26T12:35:10.110Z,6.89
2019-01-26T12:37:37.662Z,6.52
2019-01-26T12:40:05.263Z,6.57
2019-01-26T12:42:32.479Z,6.62
2019-01-26T12:45:01.643Z,6.78
2019-01-26T12:47:29.118Z,6.66
2019-01-26T12:49:56.579Z,6.28
2019-01-26T12:52:24.707Z,6.59
2019-01-26T12:54:51.826Z,6.55
2019-01-26T12:57:19.257Z,6.46
2019-01-26T12:59:46.751Z,6.44
2019-01-26T13:02:13.837Z,6.77
2019-01-26T13:04:41.736Z,6.64
2019-01-26T13:07:08.832Z,6.62
2019-01-26T13:09:37.040Z,6.75
2019-01-26T13:12:04.234Z,6.71
2019-01-26T13:14:32.325Z,6.59
2019-01-26T13:16:59.678Z,6.57
2019-01-26T13:19:27.276Z,6.73
2019-01-26T13:21:55.617Z,6.61
2019-01-26T13:24:22.714Z,6.79
2019-01-26T13:26:50.887Z,6.51
2019-01-26T13:29:18.073Z,6.57
2019-01-26T13:31:46.600Z,6.75
2019-01-26T13:34:14.785Z,6.41
2019-01-26T13:36:42.198Z,6.60
2019-01-26T13:39:09.675Z,6.53
2019-01-26T13:41:37.371Z,6.37
2019-01-26T13:44:04.459Z,6.32
2019-01-26T13:46:32.336Z,6.27
2019-01-26T13:48:59.434Z,6.42
2019-01-26T13:51:26.540Z,6.44
2019-01-26T13:53:53.986Z,6.55
2019-01-26T13:56:21.546Z,6.43
2019-01-26T13:58:50.162Z,6.29
2019-01-26T14:01:17.483Z,6.35
2019-01-26T14:03:44.949Z,6.40
2019-01-26T14:06:12.806Z,6.44
2019-01-26T14:08:40.262Z,6.27
2019-01-26T14:11:07.341Z,6.04
2019-01-26T14:13:34.879Z,6.20
2019-01-26T14:16:02.286Z,6.38
2019-01-26T14:18:29.687Z,6.17
2019-01-26T14:20:56.886Z,6.10
2019-01-26T14:23:24.327Z,6.39
2019-01-26T14:25:51.422Z,6.19
2019-01-26T14:28:20.026Z,6.06
2019-01-26T14:30:55.401Z,6.11
2019-01-26T14:33:22.804Z,5.98
2019-01-26T14:35:50.312Z,5.79
2019-01-26T14:38:17.505Z,6.07
2019-01-26T14:40:45.297Z,5.77
2019-01-26T14:43:12.652Z,5.78
2019-01-26T14:45:40.722Z,6.06
2019-01-26T14:48:08.754Z,5.94
2019-01-26T14:50:39.321Z,5.95
2019-01-26T14:53:06.667Z,5.55
2019-01-26T14:55:35.573Z,5.60
2019-01-26T14:58:03.053Z,5.86
2019-01-26T15:00:31.629Z,5.52
2019-01-26T15:02:58.970Z,5.95
2019-01-26T15:05:26.949Z,5.93
2019-01-26T15:07:54.692Z,5.66
2019-01-26T15:10:22.149Z,5.44
2019-01-26T15:12:49.364Z,5.66
2019-01-26T15:15:17.564Z,5.28
2019-01-26T15:17:44.974Z,5.68
2019-01-26T15:20:17.811Z,5.44
2019-01-26T15:22:45.680Z,5.33
2019-01-26T15:25:13.545Z,5.50
2019-01-26T15:27:40.965Z,5.53
2019-01-26T15:30:15.058Z,5.53
2019-01-26T15:32:42.152Z,5.13
2019-01-26T15:35:09.663Z,5.43
2019-01-26T15:37:37.858Z,5.50
2019-01-26T15:40:05.686Z,5.51
2019-01-26T15:42:32.970Z,5.46
2019-01-26T15:45:00.311Z,5.30
2019-01-26T15:47:27.410Z,5.33
2019-01-26T15:49:54.498Z,5.33
2019-01-26T15:52:21.635Z,5.35
2019-01-26T15:54:49.873Z,5.40
2019-01-26T15:57:18.022Z,5.36
2019-01-26T15:59:45.137Z,5.55
2019-01-26T16:02:12.430Z,5.53
2019-01-26T16:04:39.544Z,5.30
2019-01-26T16:07:06.662Z,5.21
2019-01-26T16:09:33.847Z,5.27
2019-01-26T16:12:00.930Z,5.20
2019-01-26T16:14:28.162Z,5.51
2019-01-26T16:16:55.249Z,5.54
2019-01-26T16:19:23.317Z,5.49
2019-01-26T16:21:50.767Z,5.50
2019-01-26T16:24:17.823Z,5.29
2019-01-26T16:26:44.870Z,5.33
2019-01-26T16:29:12.068Z,5.54
2019-01-26T16:31:39.143Z,5.54
2019-01-26T16:34:06.224Z,5.43
2019-01-26T16:36:34.430Z,5.35
2019-01-26T16:39:01.956Z,5.27
2019-01-26T16:41:31.256Z,5.28
2019-01-26T16:43:59.019Z,5.06
2019-01-26T16:46:26.436Z,5.25
2019-01-26T16:48:53.831Z,5.11
2019-01-26T16:51:21.043Z,4.99
2019-01-26T16:53:48.439Z,4.85
2019-01-26T16:56:16.609Z,4.73
2019-01-26T16:58:45.512Z,5.11
2019-01-26T17:01:12.590Z,5.43
2019-01-26T17:03:39.663Z,4.98
2019-01-26T17:06:07.131Z,5.19
2019-01-26T17:08:34.243Z,4.96
2019-01-26T17:11:01.332Z,5.09
2019-01-26T17:13:28.442Z,4.89
2019-01-26T17:15:55.509Z,5.16
2019-01-26T17:18:24.599Z,5.02
2019-01-26T17:20:52.559Z,5.13
2019-01-26T17:23:20.379Z,5.16
2019-01-26T17:25:47.919Z,5.23
2019-01-26T17:28:15.237Z,4.81
2019-01-26T17:30:43.060Z,4.84
2019-01-26T17:33:10.515Z,4.98
2019-01-26T17:35:37.626Z,4.82
2019-01-26T17:38:05.122Z,4.96
2019-01-26T17:40:32.787Z,5.14
2019-01-26T17:42:59.905Z,4.88
2019-01-26T17:45:27.990Z,5.24
2019-01-26T17:47:55.463Z,5.04
2019-01-26T17:50:24.194Z,4.94
2019-01-26T17:52:51.310Z,5.13
2019-01-26T17:55:18.746Z,4.77
2019-01-26T17:57:46.202Z,4.97
2019-01-26T18:00:22.395Z,5.00
2019-01-26T18:02:52.308Z,4.87
2019-01-26T18:05:19.374Z,5.09
2019-01-26T18:07:49.430Z,5.30
2019-01-26T18:10:18.637Z,5.00
2019-01-26T18:12:45.998Z,5.01
2019-01-26T18:15:14.007Z,5.18
2019-01-26T18:17:41.794Z,5.12
2019-01-26T18:20:12.359Z,5.20
2019-01-26T18:22:40.531Z,4.87
2019-01-26T18:25:07.751Z,4.91
2019-01-26T18:27:34.834Z,4.80
2019-01-26T18:30:02.194Z,4.99
2019-01-26T18:32:29.841Z,4.82
2019-01-26T18:34:56.922Z,4.73
2019-01-26T18:37:25.158Z,4.98
2019-01-26T18:39:52.835Z,4.87
2019-01-26T18:42:20.909Z,5.13
2019-01-26T18:44:48.462Z,5.21
2019-01-26T18:47:16.435Z,4.93
2019-01-26T18:49:44.403Z,5.08
2019-01-26T18:52:11.858Z,4.93
2019-01-26T18:54:39.750Z,4.93
2019-01-26T18:57:07.203Z,5.02
2019-01-26T18:59:35.977Z,4.69
2019-01-26T19:02:03.181Z,4.79
2019-01-26T19:04:44.326Z,4.93
2019-01-26T19:07:11.939Z,4.92
2019-01-26T19:09:39.020Z,4.75
2019-01-26T19:12:06.362Z,4.82
2019-01-26T19:14:34.332Z,4.70
2019-01-26T19:17:01.439Z,5.01
2019-01-26T19:19:30.709Z,5.00
2019-01-26T19:21:57.815Z,4.69
2019-01-26T19:24:25.289Z,4.75
2019-01-26T19:26:52.351Z,4.96
2019-01-26T19:29:19.742Z,4.89
2019-01-26T19:31:47.154Z,4.81
2019-01-26T19:34:14.641Z,4.99
2019-01-26T19:36:42.185Z,5.09
2019-01-26T19:39:09.605Z,5.12
2019-01-26T19:41:38.303Z,5.06
2019-01-26T19:44:07.915Z,5.14
2019-01-26T19:46:36.110Z,4.93
2019-01-26T19:49:03.247Z,5.23
2019-01-26T19:51:30.459Z,5.17
2019-01-26T19:53:58.256Z,4.97
2019-01-26T19:56:25.643Z,5.04
2019-01-26T19:58:54.373Z,5.28
2019-01-26T20:01:21.479Z,5.26
2019-01-26T20:03:48.664Z,4.99
2019-01-26T20:06:15.823Z,4.95
2019-01-26T20:08:43.103Z,5.20
2019-01-26T20:11:10.181Z,5.09
2019-01-26T20:13:39.051Z,4.95
2019-01-26T20:16:06.482Z,5.08
2019-01-26T20:18:35.170Z,4.89
2019-01-26T20:21:02.650Z,5.14
2019-01-26T20:23:31.523Z,4.98
2019-01-26T20:26:00.105Z,5.10
2019-01-26T20:28:27.865Z,5.14
2019-01-26T20:30:54.929Z,5.02
2019-01-26T20:33:22.989Z,5.17
2019-01-26T20:35:50.561Z,5.15
2019-01-26T20:38:18.286Z,5.24
2019-01-26T20:40:45.366Z,5.13
2019-01-26T20:43:14.531Z,5.33
2019-01-26T20:45:41.876Z,5.50
2019-01-26T20:48:09.262Z,5.25
2019-01-26T20:50:36.569Z,5.69
2019-01-26T20:53:06.871Z,5.40
2019-01-26T20:55:35.980Z,5.40
2019-01-26T20:58:03.557Z,5.27
2019-01-26T21:00:31.569Z,5.66
2019-01-26T21:03:00.139Z,5.39
2019-01-26T21:05:27.260Z,5.53
2019-01-26T21:07:56.395Z,5.74
2019-01-26T21:10:26.240Z,5.68
2019-01-26T21:12:53.706Z,5.52
2019-01-26T21:15:20.893Z,5.49
2019-01-26T21:17:48.081Z,5.88
2019-01-26T21:20:16.946Z,5.65
2019-01-26T21:22:50.053Z,5.87
2019-01-26T21:25:17.827Z,5.76
2019-01-26T21:27:46.202Z,6.04
2019-01-26T21:30:17.159Z,6.01
2019-01-26T21:32:44.518Z,6.04
2019-01-26T21:35:11.603Z,6.17
2019-01-26T21:37:38.685Z,5.96
2019-01-26T21:40:11.714Z,6.18
2019-01-26T21:42:40.104Z,6.08
2019-01-26T21:45:09.435Z,6.06
2019-01-26T21:47:36.642Z,6.53
2019-01-26T21:50:06.290Z,6.18
2019-01-26T21:52:33.367Z,6.32
2019-01-26T21:55:00.903Z,6.18
2019-01-26T21:57:27.979Z,6.23
2019-01-26T21:59:55.167Z,6.56
2019-01-26T22:02:25.223Z,6.10
2019-01-26T22:04:52.603Z,6.24
2019-01-26T22:07:19.678Z,6.28
2019-01-26T22:09:47.284Z,6.43
2019-01-26T22:12:15.152Z,6.36
2019-01-26T22:14:42.750Z,6.18
2019-01-26T22:17:09.858Z,6.36
2019-01-26T22:19:37.040Z,6.41
2019-01-26T22:22:04.455Z,6.23
2019-01-26T22:24:32.238Z,6.33
2019-01-26T22:26:59.647Z,6.26
2019-01-26T22:29:31.241Z,6.13
2019-01-26T22:31:56.252Z,6.11
2019-01-26T22:34:24.402Z,6.44
2019-01-26T22:36:51.767Z,6.64
2019-01-26T22:39:18.887Z,6.26
2019-01-26T22:41:46.575Z,6.39
2019-01-26T22:44:13.703Z,6.28
2019-01-26T22:46:41.489Z,6.40
2019-01-26T22:49:08.951Z,6.37
2019-01-26T22:51:37.128Z,6.40
2019-01-26T22:54:04.874Z,6.20
2019-01-26T22:56:32.338Z,6.22
2019-01-26T22:58:59.427Z,6.45
2019-01-26T23:01:31.949Z,6.35
2019-01-26T23:04:36.965Z,6.48
2019-01-26T23:07:35.585Z,6.45
2019-01-26T23:10:48.970Z,6.06
2019-01-26T23:13:43.456Z,6.37
2019-01-26T23:16:51.814Z,6.48
2019-01-26T23:19:26.163Z,6.39
2019-01-26T23:22:27.763Z,6.57
2019-01-26T23:25:24.562Z,6.55
2019-01-26T23:28:12.468Z,6.50
2019-01-26T23:31:19.675Z,6.59
2019-01-26T23:33:51.003Z,6.44
2019-01-26T23:36:18.615Z,6.30
2019-01-26T23:38:46.699Z,6.50
2019-01-26T23:41:13.847Z,6.36
2019-01-26T23:43:41.563Z,6.37
2019-01-26T23:46:09.652Z,6.51
2019-01-26T23:48:41.024Z,6.50
2019-01-26T23:51:08.542Z,6.49
2019-01-26T23:53:36.200Z,6.26
2019-01-26T23:56:03.476Z,6.57
2019-01-26T23:58:31.114Z,6.28
